Time;durP1;ratioP1;P1;durP2;ratioP2;P2;SDS_P1;SDS_P2;PMS_P1;PMS_P2;Temp;Humidity;BMP_temperature;BMP_pressure;BME280_temperature;BME280_humidity;BME280_pressure;Samples;Min_cycle;Max_cycle;Signal;HPM_P1;HPM_P2
2022/09/30 00:03:25;;;;;;;53.40;29.33;;;6.60;99.90;;;;;;10484380;28;20214;-78
2022/09/30 00:08:46;;;;;;;60.10;33.40;;;6.60;1.00;;;;;;10483848;28;20375;-85
2022/09/30 00:14:10;;;;;;;57.63;32.57;;;;;;;;;;10469940;28;20210;-78
2022/09/30 00:19:31;;;;;;;50.10;28.60;;;6.40;99.90;;;;;;10474799;28;20202;-78
2022/09/30 00:24:53;;;;;;;47.47;28.10;;;;;;;;;;10492948;28;20197;-77
2022/09/30 00:30:14;;;;;;;45.00;28.13;;;;;;;;;;10489014;28;20223;-78
2022/09/30 00:35:37;;;;;;;54.93;27.93;;;;;;;;;;10448565;28;20366;-87
2022/09/30 00:40:59;;;;;;;48.97;28.07;;;;;;;;;;10427299;28;20215;-78
2022/09/30 00:46:25;;;;;;;45.03;25.80;;;;;;;;;;10426736;28;20424;-78
2022/09/30 00:51:51;;;;;;;42.53;24.30;;;6.30;1.00;;;;;;10453797;28;20613;-78
2022/09/30 00:57:12;;;;;;;37.37;22.10;;;6.30;1.00;;;;;;10453392;28;20231;-78
2022/09/30 01:02:33;;;;;;;39.27;19.87;;;6.20;1.00;;;;;;10482431;28;20197;-82
2022/09/30 01:07:57;;;;;;;36.83;20.40;;;6.10;1.00;;;;;;10467637;28;20271;-87
2022/09/30 01:13:19;;;;;;;28.83;18.33;;;;;;;;;;10482377;28;20222;-79
2022/09/30 01:18:41;;;;;;;32.47;17.63;;;;;;;;;;10467704;28;20326;-80
2022/09/30 01:24:15;;;;;;;30.57;16.07;;;;;;;;;;10480387;28;20191;-79
2022/09/30 01:29:44;;;;;;;24.90;14.90;;;;;;;;;;10481174;28;20214;-79
2022/09/30 01:35:08;;;;;;;27.33;16.87;;;;;;;;;;10463372;28;20199;-78
2022/09/30 01:40:30;;;;;;;29.90;17.10;;;;;;;;;;10438823;28;20270;-86
2022/09/30 01:46:01;;;;;;;32.57;19.57;;;;;;;;;;10424950;28;20242;-85
2022/09/30 01:51:32;;;;;;;32.50;19.37;;;;;;;;;;10450665;28;20233;-87
2022/09/30 02:03:02;;;;;;;32.63;17.80;;;;;;;;;;10479746;28;20614;-87
2022/09/30 02:08:28;;;;;;;28.40;16.00;;;;;;;;;;10493151;28;20195;-85
2022/09/30 02:13:53;;;;;;;26.33;17.23;;;;;;;;;;10479112;28;20290;-86
2022/09/30 02:19:15;;;;;;;28.33;17.57;;;;;;;;;;10463117;28;20481;-78
2022/09/30 02:24:37;;;;;;;28.63;18.40;;;;;;;;;;10479977;28;20513;-83
2022/09/30 02:30:00;;;;;;;29.30;18.07;;;;;;;;;;10464630;28;20306;-79
2022/09/30 02:35:28;;;;;;;31.90;19.03;;;;;;;;;;10423439;28;20208;-85
2022/09/30 02:40:53;;;;;;;33.53;20.23;;;;;;;;;;10436890;28;20556;-83
2022/09/30 02:46:14;;;;;;;33.77;19.93;;;;;;;;;;10469393;28;20299;-84
2022/09/30 02:51:51;;;;;;;36.13;21.40;;;;;;;;;;10479287;28;20438;-87
2022/09/30 03:04:12;;;;;;;39.80;23.27;;;;;;;;;;10479227;28;20187;-86
2022/09/30 03:09:34;;;;;;;38.03;21.47;;;;;;;;;;10464871;28;20195;-85
2022/09/30 03:14:59;;;;;;;33.97;20.33;;;;;;;;;;10478278;28;20191;-83
2022/09/30 03:20:45;;;;;;;30.83;17.93;;;;;;;;;;10481653;28;20203;-85
2022/09/30 03:26:27;;;;;;;32.13;18.10;;;;;;;;;;10471168;28;20198;-83
2022/09/30 03:32:15;;;;;;;32.90;19.43;;;;;;;;;;10469017;28;20427;-81
2022/09/30 03:37:48;;;;;;;29.43;18.03;;;;;;;;;;10511295;28;20201;-86
2022/09/30 03:43:42;;;;;;;28.63;16.97;;;;;;;;;;10485274;28;20531;-85
2022/09/30 03:49:07;;;;;;;32.13;17.83;;;;;;;;;;10448951;28;20198;-81
2022/09/30 03:54:28;;;;;;;25.20;16.13;;;;;;;;;;10498870;28;20302;-84
2022/09/30 03:59:50;;;;;;;24.40;15.93;;;;;;;;;;10485697;28;20201;-85
2022/09/30 04:05:12;;;;;;;25.70;16.57;;;;;;;;;;10430746;28;20599;-86
2022/09/30 04:10:34;;;;;;;29.97;19.00;;;;;;;;;;10469833;28;20280;-85
2022/09/30 04:15:55;;;;;;;25.60;17.53;;;;;;;;;;10484536;28;20477;-85
2022/09/30 04:21:16;;;;;;;22.33;14.90;;;;;;;;;;10497948;28;20205;-85
2022/09/30 04:26:38;;;;;;;21.73;14.60;;;;;;;;;;10469708;28;20266;-85
2022/09/30 04:32:00;;;;;;;23.50;16.33;;;;;;;;;;10483298;28;20504;-81
2022/09/30 04:37:22;;;;;;;32.30;19.63;;;;;;;;;;10482607;28;20283;-86
2022/09/30 04:42:43;;;;;;;32.53;19.73;;;;;;;;;;10469047;28;20532;-82
2022/09/30 04:48:05;;;;;;;33.60;19.17;;;;;;;;;;10482859;28;20253;-84
2022/09/30 04:53:27;;;;;;;30.37;17.13;;;;;;;;;;10484393;28;20272;-80
2022/09/30 04:58:48;;;;;;;36.27;17.43;;;;;;;;;;10488573;28;20191;-81
2022/09/30 05:04:15;;;;;;;43.60;27.40;;;;;;;;;;10479673;28;20497;-80
2022/09/30 05:09:36;;;;;;;37.13;23.47;;;;;;;;;;10496054;28;20418;-80
2022/09/30 05:14:57;;;;;;;39.90;23.47;;;;;;;;;;10470406;28;20226;-80
2022/09/30 05:20:19;;;;;;;57.97;32.57;;;;;;;;;;10440891;28;20406;-81
2022/09/30 05:25:41;;;;;;;56.73;31.40;;;;;;;;;;10443895;28;20238;-81
2022/09/30 05:31:05;;;;;;;46.50;28.13;;;;;;;;;;10481049;28;20236;-87
2022/09/30 05:36:26;;;;;;;68.17;39.73;;;;;;;;;;10476788;28;20447;-83
2022/09/30 05:41:48;;;;;;;55.83;37.60;;;;;;;;;;10468046;28;20306;-87
2022/09/30 05:47:10;;;;;;;51.60;32.87;;;;;;;;;;10485408;28;20253;-88
2022/09/30 05:52:31;;;;;;;51.13;32.07;;;;;;;;;;10485331;28;20302;-80
2022/09/30 05:57:54;;;;;;;54.00;33.90;;;;;;;;;;10481660;28;20211;-89
2022/09/30 06:03:17;;;;;;;46.87;31.77;;;;;;;;;;10452981;28;20207;-87
2022/09/30 06:08:39;;;;;;;49.60;32.67;;;;;;;;;;10467147;28;20188;-84
2022/09/30 06:14:01;;;;;;;81.27;47.60;;;;;;;;;;10465440;28;20235;-81
2022/09/30 06:19:23;;;;;;;89.47;52.17;;;;;;;;;;10466753;28;20238;-79
2022/09/30 06:24:45;;;;;;;75.43;44.63;;;;;;;;;;10494312;28;20389;-88
2022/09/30 06:30:07;;;;;;;71.20;41.40;;;;;;;;;;10466590;28;20225;-78
2022/09/30 06:35:29;;;;;;;71.03;40.57;;;;;;;;;;10437362;28;20205;-84
2022/09/30 06:40:51;;;;;;;50.60;30.83;;;;;;;;;;10464715;28;20205;-86
2022/09/30 06:46:12;;;;;;;47.40;25.70;;;9.80;50.90;;;;;;10478335;28;20252;-89
2022/09/30 06:51:36;;;;;;;43.10;27.20;;;10.90;1.00;;;;;;10478364;28;20351;-86
2022/09/30 06:56:57;;;;;;;40.10;26.37;;;10.70;99.90;;;;;;10478422;28;20197;-83
2022/09/30 07:02:19;;;;;;;39.13;24.03;;;10.50;99.90;;;;;;10477414;28;20207;-83
2022/09/30 07:07:42;;;;;;;39.23;24.30;;;10.40;99.90;;;;;;10478851;28;20191;-85
2022/09/30 07:13:04;;;;;;;39.73;26.33;;;10.20;1.00;;;;;;10495891;28;20619;-86
2022/09/30 07:18:27;;;;;;;48.67;30.93;;;9.90;1.00;;;;;;10450011;28;20192;-80
2022/09/30 07:23:48;;;;;;;53.90;31.07;;;10.00;1.00;;;;;;10462759;28;20210;-87
2022/09/30 07:29:12;;;;;;;58.75;33.78;;;11.30;1.00;;;;;;10402147;28;20221;-80
2022/09/30 07:34:35;;;;;;;45.92;29.42;;;13.20;1.00;;;;;;10441095;28;20764;-77
2022/09/30 07:39:56;;;;;;;50.22;27.98;;;;;;;;;;10472196;28;20195;-79
2022/09/30 07:45:18;;;;;;;32.22;22.05;;;15.90;1.00;;;;;;10457143;28;20238;-80
2022/09/30 07:50:44;;;;;;;57.13;37.53;;;16.10;1.00;;;;;;10456385;28;20223;-85
2022/09/30 07:56:06;;;;;;;30.05;15.70;;;16.90;1.00;;;;;;10471360;28;20200;-81
2022/09/30 08:01:31;;;;;;;16.00;11.43;;;17.80;1.00;;;;;;10452823;28;20189;-78
2022/09/30 08:07:00;;;;;;;16.17;10.68;;;;;;;;;;10471767;28;20200;-78
2022/09/30 08:12:21;;;;;;;16.33;11.05;;;;;;;;;;10464439;28;20243;-81
2022/09/30 08:17:42;;;;;;;32.50;17.25;;;20.30;99.90;;;;;;10463907;28;20203;-79
2022/09/30 08:23:04;;;;;;;15.38;9.10;;;20.80;99.90;;;;;;10422825;28;20192;-91
2022/09/30 08:28:26;;;;;;;5.72;4.80;;;;;;;;;;10471048;28;20204;-79
2022/09/30 08:33:47;;;;;;;5.97;4.50;;;21.70;1.00;;;;;;10458788;28;20274;-79
2022/09/30 08:39:09;;;;;;;4.38;3.72;;;22.20;1.00;;;;;;10463686;28;20192;-83
2022/09/30 08:44:44;;;;;;;5.55;4.35;;;22.90;1.00;;;;;;10476417;28;20238;-82
2022/09/30 08:50:35;;;;;;;3.78;3.38;;;23.00;1.00;;;;;;10478589;28;20491;-79
2022/09/30 08:56:01;;;;;;;2.83;2.40;;;23.60;1.00;;;;;;10462614;28;20518;-78
2022/09/30 09:01:34;;;;;;;3.70;2.63;;;23.70;1.00;;;;;;10477225;28;20200;-80
2022/09/30 09:07:09;;;;;;;5.68;4.25;;;23.70;1.00;;;;;;10476584;28;20390;-81
2022/09/30 09:12:50;;;;;;;14.50;11.70;;;23.60;1.00;;;;;;10476935;28;20307;-81
2022/09/30 09:18:28;;;;;;;4.78;2.72;;;23.30;1.00;;;;;;10435685;28;20487;-85
2022/09/30 09:23:51;;;;;;;4.78;3.20;;;23.90;1.00;;;;;;10460123;28;20208;-80
2022/09/30 09:29:44;;;;;;;4.25;3.83;;;24.10;1.00;;;;;;10480988;28;20224;-87
2022/09/30 09:35:15;;;;;;;6.75;5.18;;;24.20;1.00;;;;;;10456039;28;20227;-80
2022/09/30 09:40:43;;;;;;;7.97;4.38;;;24.20;1.00;;;;;;10476670;28;20736;-80
2022/09/30 09:46:20;;;;;;;11.48;7.53;;;24.90;1.00;;;;;;10475909;28;20273;-80
2022/09/30 09:52:04;;;;;;;7.45;6.40;;;24.90;1.00;;;;;;10473918;28;20239;-82
2022/09/30 09:57:31;;;;;;;2.83;2.50;;;24.90;1.00;;;;;;10474234;28;20204;-80
2022/09/30 10:03:18;;;;;;;3.83;2.05;;;25.40;1.00;;;;;;10459883;28;20196;-86
2022/09/30 10:08:53;;;;;;;1.63;1.50;;;25.20;1.00;;;;;;10478729;28;20495;-86
2022/09/30 10:14:21;;;;;;;4.03;3.58;;;25.70;1.00;;;;;;10475334;28;20223;-84
2022/09/30 10:19:52;;;;;;;6.72;3.17;;;25.40;99.90;;;;;;10476836;28;20188;-80
2022/09/30 10:25:21;;;;;;;2.30;2.10;;;23.60;99.90;;;;;;10474455;28;20218;-85
2022/09/30 10:30:44;;;;;;;4.38;2.75;;;23.10;99.90;;;;;;10466073;28;20286;-85
2022/09/30 10:36:07;;;;;;;3.67;3.00;;;22.50;99.90;;;;;;10459926;28;20211;-83
2022/09/30 10:41:31;;;;;;;4.80;4.25;;;23.00;1.00;;;;;;10473306;28;20198;-79
2022/09/30 10:47:00;;;;;;;5.00;4.05;;;23.40;99.90;;;;;;10458715;28;20219;-84
2022/09/30 10:52:31;;;;;;;3.10;2.60;;;24.20;99.90;;;;;;10440708;28;20270;-79
2022/09/30 10:57:56;;;;;;;4.05;2.78;;;23.50;99.90;;;;;;10459447;28;20219;-84
2022/09/30 11:03:23;;;;;;;4.15;3.20;;;22.10;99.90;;;;;;10474157;28;20222;-85
2022/09/30 11:08:56;;;;;;;3.08;2.35;;;21.00;99.90;;;;;;10458066;28;20283;-80
2022/09/30 11:14:37;;;;;;;5.97;2.78;;;19.70;99.90;;;;;;10472895;28;20228;-79
2022/09/30 11:20:06;;;;;;;3.83;2.58;;;19.00;99.90;;;;;;10471565;28;20279;-83
2022/09/30 11:25:40;;;;;;;3.67;2.72;;;17.90;99.90;;;;;;10471115;28;20199;-80
2022/09/30 11:31:35;;;;;;;6.18;3.33;;;17.80;1.00;;;;;;10430707;28;20552;-81
2022/09/30 11:37:11;;;;;;;6.03;3.47;;;17.50;1.00;;;;;;10469038;28;20196;-80
2022/09/30 11:42:39;;;;;;;7.90;6.68;;;17.40;1.00;;;;;;10450116;28;20284;-90
2022/09/30 11:48:38;;;;;;;4.80;4.18;;;17.20;1.00;;;;;;10495917;28;20476;-82
2022/09/30 11:54:09;;;;;;;5.38;3.50;;;17.00;99.90;;;;;;10452150;28;20556;-81
2022/09/30 11:59:52;;;;;;;9.30;5.05;;;16.60;1.00;;;;;;10437928;28;20363;-88
2022/09/30 12:05:26;;;;;;;6.45;4.68;;;16.40;1.00;;;;;;10464671;28;20254;-87
2022/09/30 12:10:54;;;;;;;9.73;4.28;;;16.50;46.90;;;;;;10464859;28;20190;-87
2022/09/30 12:16:22;;;;;;;8.07;3.20;;;16.60;99.90;;;;;;10479283;28;20198;-81
2022/09/30 12:21:56;;;;;;;4.88;3.90;;;16.50;99.90;;;;;;10464992;28;20196;-83
2022/09/30 12:27:34;;;;;;;5.13;3.92;;;16.50;99.90;;;;;;10475262;28;20199;-80
2022/09/30 12:33:29;;;;;;;9.02;4.88;;;16.40;99.90;;;;;;10445042;28;20242;-86
2022/09/30 12:39:15;;;;;;;10.25;4.95;;;16.60;99.90;;;;;;10480355;28;20205;-81
2022/09/30 12:45:08;;;;;;;2.60;2.40;;;17.20;99.90;;;;;;10467029;28;20309;-80
2022/09/30 12:50:42;;;;;;;22.40;11.90;;;17.20;99.90;;;;;;10478623;28;20210;-80
2022/09/30 12:56:12;;;;;;;7.50;4.35;;;17.60;99.90;;;;;;10463706;28;20203;-81
2022/09/30 13:01:38;;;;;;;2.60;1.90;;;18.70;99.90;;;;;;10464068;28;20230;-78
2022/09/30 13:06:59;;;;;;;3.22;2.13;;;19.80;1.00;;;;;;10476655;28;20227;-80
2022/09/30 13:12:40;;;;;;;4.68;3.30;;;19.40;1.00;;;;;;10465682;28;20505;-81
2022/09/30 13:18:20;;;;;;;5.68;3.63;;;19.70;1.00;;;;;;10476455;28;20207;-87
2022/09/30 13:23:53;;;;;;;4.13;3.72;;;20.70;1.00;;;;;;10462559;28;20204;-87
2022/09/30 13:29:18;;;;;;;3.45;3.15;;;21.50;1.00;;;;;;10461038;28;20243;-87
2022/09/30 13:34:54;;;;;;;5.85;3.05;;;21.70;1.00;;;;;;10477796;28;20243;-84
2022/09/30 13:40:20;;;;;;;5.03;3.30;;;21.40;1.00;;;;;;10466623;28;20208;-85
2022/09/30 13:45:50;;;;;;;3.78;3.15;;;21.40;1.00;;;;;;10497026;28;20240;-82
2022/09/30 13:51:15;;;;;;;7.90;5.35;;;20.80;1.00;;;;;;10497923;28;20194;-84
2022/09/30 13:56:39;;;;;;;7.63;5.03;;;19.30;1.00;;;;;;10464223;28;20399;-87
2022/09/30 14:02:23;;;;;;;5.43;3.70;;;18.20;1.00;;;;;;10491697;28;20192;-84
2022/09/30 14:08:08;;;;;;;4.10;3.08;;;16.90;1.00;;;;;;10474562;28;20538;-88
2022/09/30 14:13:31;;;;;;;4.22;2.63;;;16.90;1.00;;;;;;10460834;28;20535;-85
2022/09/30 14:19:10;;;;;;;2.90;2.28;;;16.70;1.00;;;;;;10461276;28;20199;-84
2022/09/30 14:24:39;;;;;;;4.38;3.03;;;16.60;1.00;;;;;;10425259;28;20205;-82
2022/09/30 14:30:17;;;;;;;8.52;5.00;;;16.50;1.00;;;;;;10437841;28;20479;-83
2022/09/30 14:41:39;;;;;;;8.40;5.22;;;16.50;1.00;;;;;;10474899;28;20225;-84
2022/09/30 14:47:03;;;;;;;3.80;2.80;;;16.60;1.00;;;;;;10489769;28;20299;-84
2022/09/30 14:52:40;;;;;;;9.95;4.80;;;16.90;1.00;;;;;;10458912;28;20236;-83
2022/09/30 14:58:43;;;;;;;7.75;4.60;;;17.20;1.00;;;;;;10458386;28;20201;-82
2022/09/30 15:04:15;;;;;;;13.45;9.65;;;16.80;1.00;;;;;;10453835;28;20213;-82
2022/09/30 15:09:41;;;;;;;5.97;4.22;;;16.30;1.00;;;;;;10446024;28;20244;-82
2022/09/30 15:15:21;;;;;;;8.30;4.82;;;16.00;1.00;;;;;;10458844;28;20225;-82
2022/09/30 15:20:43;;;;;;;26.00;14.27;;;15.80;1.00;;;;;;10467774;28;20217;-83
2022/09/30 15:26:05;;;;;;;15.77;9.07;;;15.60;1.00;;;;;;10479261;28;20220;-83
2022/09/30 15:31:29;;;;;;;11.23;6.10;;;15.40;1.00;;;;;;10518392;28;20392;-83
2022/09/30 15:37:21;;;;;;;27.38;18.65;;;15.20;1.00;;;;;;10513150;28;20291;-84
2022/09/30 15:42:58;;;;;;;22.52;14.02;;;15.00;1.00;;;;;;10474228;28;20289;-84
2022/09/30 15:48:24;;;;;;;18.38;10.95;;;14.80;1.00;;;;;;10471548;28;20240;-84
2022/09/30 15:53:47;;;;;;;25.00;15.50;;;14.40;1.00;;;;;;10486106;28;20249;-84
2022/09/30 15:59:13;;;;;;;27.00;15.55;;;14.20;1.00;;;;;;10456112;28;20290;-84
2022/09/30 16:04:37;;;;;;;23.58;13.65;;;14.00;1.00;;;;;;10469880;28;20215;-85
2022/09/30 16:09:58;;;;;;;26.10;15.10;;;13.90;1.00;;;;;;10470067;28;20212;-84
2022/09/30 16:15:20;;;;;;;31.02;19.55;;;13.80;1.00;;;;;;10455522;28;20216;-84
2022/09/30 16:21:02;;;;;;;53.88;29.98;;;13.70;1.00;;;;;;10469583;28;20187;-84
2022/09/30 16:26:28;;;;;;;60.08;34.80;;;13.60;1.00;;;;;;10454469;28;20281;-84
2022/09/30 16:31:53;;;;;;;67.63;39.58;;;13.60;1.00;;;;;;10468777;28;20281;-84
2022/09/30 16:37:18;;;;;;;77.73;44.77;;;13.50;1.00;;;;;;10469250;28;20203;-84
2022/09/30 16:42:39;;;;;;;85.82;49.55;;;13.40;14.90;;;;;;10482799;28;20240;-84
2022/09/30 16:48:04;;;;;;;113.18;61.42;;;13.30;99.90;;;;;;10468511;28;20246;-85
2022/09/30 16:53:26;;;;;;;123.60;65.03;;;13.10;1.00;;;;;;10468598;28;20227;-85
2022/09/30 16:58:47;;;;;;;120.43;65.85;;;13.00;1.00;;;;;;10457611;28;20276;-84
2022/09/30 17:04:10;;;;;;;109.10;58.60;;;12.90;1.00;;;;;;10477058;28;20202;-83
2022/09/30 17:09:33;;;;;;;84.88;45.60;;;12.80;99.90;;;;;;10497311;28;20197;-84
2022/09/30 17:14:57;;;;;;;62.37;33.73;;;12.80;1.00;;;;;;10464161;28;20231;-85
2022/09/30 17:20:19;;;;;;;52.37;27.23;;;12.70;99.90;;;;;;10473861;28;20182;-84
2022/09/30 17:25:42;;;;;;;47.80;23.87;;;12.60;99.90;;;;;;10488848;28;20209;-84
2022/09/30 17:31:03;;;;;;;33.87;19.20;;;12.60;1.00;;;;;;10431430;28;20282;-84
2022/09/30 17:36:25;;;;;;;24.75;16.60;;;12.50;99.90;;;;;;10447239;28;20199;-84
2022/09/30 17:47:27;;;;;;;36.83;23.30;;;12.30;1.00;;;;;;10471345;28;20280;-84
2022/09/30 17:52:50;;;;;;;31.53;22.47;;;12.30;1.00;;;;;;10470235;28;20315;-84
2022/09/30 17:58:15;;;;;;;34.03;23.77;;;12.30;99.90;;;;;;10499317;28;20273;-83
2022/09/30 18:03:42;;;;;;;32.30;22.07;;;12.20;1.00;;;;;;10460949;28;20210;-86
2022/09/30 18:09:04;;;;;;;34.00;22.77;;;12.10;1.00;;;;;;10467429;28;20205;-85
2022/09/30 18:14:31;;;;;;;34.73;23.23;;;12.00;1.00;;;;;;10474354;28;20214;-83
2022/09/30 18:19:53;;;;;;;40.00;24.57;;;11.90;99.90;;;;;;10476176;28;20209;-85
2022/09/30 18:25:20;;;;;;;39.87;25.03;;;11.80;99.90;;;;;;10499851;28;20216;-85
2022/09/30 18:30:42;;;;;;;41.50;24.70;;;11.70;1.00;;;;;;10441561;28;20249;-86
2022/09/30 18:36:05;;;;;;;36.60;22.57;;;11.60;1.00;;;;;;10426853;28;20302;-84
2022/09/30 18:41:29;;;;;;;32.70;19.40;;;11.50;99.90;;;;;;10460634;28;20219;-85
2022/09/30 18:46:50;;;;;;;38.33;20.70;;;11.40;99.90;;;;;;10450744;28;20238;-84
2022/09/30 18:52:12;;;;;;;38.27;20.17;;;11.40;99.90;;;;;;10463437;28;20271;-83
2022/09/30 18:57:34;;;;;;;34.03;20.37;;;11.30;99.90;;;;;;10465647;28;20227;-84
2022/09/30 19:02:56;;;;;;;46.17;24.83;;;11.10;99.90;;;;;;10452060;28;20378;-84
2022/09/30 19:08:18;;;;;;;41.30;24.50;;;11.00;1.00;;;;;;10463660;28;20209;-85
2022/09/30 19:13:46;;;;;;;40.23;21.30;;;10.80;1.00;;;;;;10478870;28;20231;-85
2022/09/30 19:19:09;;;;;;;37.47;21.67;;;10.80;1.00;;;;;;10477821;28;20234;-85
2022/09/30 19:24:31;;;;;;;34.53;20.87;;;10.90;1.00;;;;;;10449890;28;20205;-85
2022/09/30 19:29:52;;;;;;;44.70;26.07;;;10.90;1.00;;;;;;10450677;28;20202;-85
2022/09/30 19:35:17;;;;;;;47.13;27.40;;;10.90;1.00;;;;;;10450064;28;20232;-84
2022/09/30 19:40:39;;;;;;;41.77;25.07;;;10.90;1.00;;;;;;10491327;28;20185;-84
2022/09/30 19:46:05;;;;;;;35.53;21.97;;;10.70;1.00;;;;;;10463986;28;20241;-84
2022/09/30 19:51:31;;;;;;;31.10;20.70;;;;;;;;;;10448553;28;20192;-84
2022/09/30 19:56:53;;;;;;;32.20;20.13;;;10.60;99.90;;;;;;10463567;28;20207;-84
2022/09/30 20:02:14;;;;;;;29.17;19.77;;;10.40;43.70;;;;;;10480731;28;20203;-85
2022/09/30 20:07:35;;;;;;;34.47;21.03;;;10.30;99.90;;;;;;10452915;28;20401;-83
2022/09/30 20:12:58;;;;;;;39.60;23.93;;;10.30;99.90;;;;;;10447145;28;20221;-84
2022/09/30 20:18:52;;;;;;;33.30;22.20;;;10.20;99.90;;;;;;10437232;28;20196;-84
2022/09/30 20:24:24;;;;;;;32.53;18.93;;;10.20;99.90;;;;;;10449463;28;20517;-85
2022/09/30 20:29:46;;;;;;;24.73;17.83;;;10.10;99.90;;;;;;10464008;28;20197;-85
2022/09/30 20:35:21;;;;;;;31.30;19.07;;;10.10;98.90;;;;;;10462788;28;20266;-84
2022/09/30 20:40:43;;;;;;;35.13;20.70;;;;;;;;;;10483979;28;20193;-84
2022/09/30 20:46:07;;;;;;;32.53;19.47;;;9.90;99.90;;;;;;10456738;28;20292;-85
2022/09/30 20:51:29;;;;;;;25.50;18.13;;;9.80;73.90;;;;;;10428358;28;20193;-84
2022/09/30 20:56:51;;;;;;;33.60;18.80;;;9.80;61.30;;;;;;10447627;28;20221;-85
2022/09/30 21:02:26;;;;;;;25.50;17.87;;;9.70;98.20;;;;;;10470767;28;20393;-84
2022/09/30 21:07:49;;;;;;;31.37;19.10;;;9.70;99.90;;;;;;10453670;28;20269;-85
2022/09/30 21:13:11;;;;;;;31.43;18.43;;;9.60;99.90;;;;;;10453941;28;20233;-84
2022/09/30 21:18:33;;;;;;;27.97;19.40;;;9.50;99.90;;;;;;10453414;28;20195;-85
2022/09/30 21:23:56;;;;;;;36.13;23.83;;;9.50;99.90;;;;;;10453380;28;20243;-85
2022/09/30 21:29:17;;;;;;;54.03;29.40;;;9.50;56.50;;;;;;10453028;28;20206;-85
2022/09/30 21:34:39;;;;;;;48.27;27.73;;;9.40;99.90;;;;;;10452892;28;20255;-84
2022/09/30 21:40:00;;;;;;;52.07;28.90;;;9.30;99.90;;;;;;10425521;28;20245;-85
2022/09/30 21:45:21;;;;;;;45.47;27.13;;;9.20;99.90;;;;;;10411410;28;20238;-84
2022/09/30 21:50:43;;;;;;;35.47;23.57;;;9.20;99.90;;;;;;10475382;28;20191;-85
2022/09/30 21:56:05;;;;;;;39.43;23.70;;;9.10;99.90;;;;;;10452132;28;20247;-85
2022/09/30 22:01:26;;;;;;;36.60;23.07;;;9.10;99.90;;;;;;10479813;28;20194;-84
2022/09/30 22:06:47;;;;;;;38.27;23.73;;;9.00;99.90;;;;;;10449961;28;20205;-84
2022/09/30 22:12:09;;;;;;;41.73;25.23;;;9.00;99.90;;;;;;10479996;28;20275;-84
2022/09/30 22:17:30;;;;;;;37.93;24.83;;;9.00;99.90;;;;;;10493306;28;20201;-84
2022/09/30 22:22:52;;;;;;;39.23;24.70;;;8.90;99.90;;;;;;10451598;28;20230;-84
2022/09/30 22:28:14;;;;;;;39.30;24.67;;;8.70;99.90;;;;;;10455090;28;20274;-84
2022/09/30 22:39:17;;;;;;;35.37;23.23;;;8.60;99.90;;;;;;10464254;28;20245;-85
2022/09/30 22:44:38;;;;;;;33.83;23.00;;;8.50;99.90;;;;;;10464497;28;20234;-84
2022/09/30 22:50:00;;;;;;;37.30;24.37;;;8.50;99.90;;;;;;10465557;28;20555;-84
2022/09/30 22:55:21;;;;;;;39.27;25.43;;;8.40;99.90;;;;;;10458659;28;20265;-84
2022/09/30 23:00:54;;;;;;;43.17;28.50;;;8.40;99.90;;;;;;10457618;28;20282;-84
2022/09/30 23:06:15;;;;;;;43.23;28.17;;;8.40;99.90;;;;;;10463767;28;20514;-84
2022/09/30 23:11:38;;;;;;;49.40;29.97;;;8.30;99.90;;;;;;10463816;28;20194;-84
2022/09/30 23:16:59;;;;;;;40.87;27.53;;;8.30;99.90;;;;;;10463816;28;20222;-84
2022/09/30 23:22:20;;;;;;;43.40;26.20;;;8.30;1.00;;;;;;10477484;28;20415;-84
2022/09/30 23:27:47;;;;;;;44.97;27.60;;;8.30;1.00;;;;;;10463001;28;20403;-84
2022/09/30 23:33:09;;;;;;;45.53;27.70;;;8.20;99.90;;;;;;10462960;28;20221;-84
2022/09/30 23:38:30;;;;;;;44.03;26.77;;;8.20;99.90;;;;;;10469257;28;20201;-84
2022/09/30 23:43:52;;;;;;;45.13;26.97;;;8.10;1.00;;;;;;10471256;28;20295;-83
2022/09/30 23:49:13;;;;;;;37.73;24.50;;;8.10;1.00;;;;;;10471787;28;20197;-84
2022/09/30 23:54:34;;;;;;;39.53;25.30;;;8.00;1.00;;;;;;10484326;28;20221;-84
2022/09/30 23:59:56;;;;;;;47.20;27.63;;;8.00;1.00;;;;;;10470509;28;20228;-84
